Time;durP1;ratioP1;P1;durP2;ratioP2;P2;SDS_P1;SDS_P2;PMS_P1;PMS_P2;Temp;Humidity;BMP_temperature;BMP_pressure;BME280_temperature;BME280_humidity;BME280_pressure;Samples;Min_cycle;Max_cycle;Signal;HPM_P1;HPM_P2
2021/03/31 00:01:26;;;;;;;;;;;18.20;55.60;;;;;;5075867;28;19908;-63
2021/03/31 00:03:52;;;;;;;;;;;18.10;55.50;;;;;;5075765;28;19916;-63
2021/03/31 00:06:17;;;;;;;;;;;19.20;56.10;;;;;;5075734;28;19915;-63
2021/03/31 00:08:43;;;;;;;;;;;19.30;56.10;;;;;;5075218;28;19909;-63
2021/03/31 00:11:09;;;;;;;;;;;18.20;55.60;;;;;;5076081;28;19975;-63
2021/03/31 00:13:34;;;;;;;;;;;18.10;55.50;;;;;;5075371;28;19936;-63
2021/03/31 00:16:00;;;;;;;;;;;18.10;55.40;;;;;;5075350;28;20203;-63
2021/03/31 00:18:26;;;;;;;;;;;18.20;55.50;;;;;;5075295;28;19920;-63
2021/03/31 00:20:52;;;;;;;;;;;18.20;55.50;;;;;;5075511;28;19963;-63
2021/03/31 00:23:19;;;;;;;;;;;18.10;55.40;;;;;;5075209;28;19908;-63
2021/03/31 00:25:45;;;;;;;;;;;18.50;55.60;;;;;;5075279;28;19908;-63
2021/03/31 00:28:11;;;;;;;;;;;18.30;55.50;;;;;;5075325;28;19913;-63
2021/03/31 00:30:37;;;;;;;;;;;18.00;55.40;;;;;;5075225;28;19916;-63
2021/03/31 00:33:03;;;;;;;;;;;18.00;55.30;;;;;;5057155;28;19909;-63
2021/03/31 00:35:28;;;;;;;;;;;18.20;55.40;;;;;;5056940;28;19963;-63
2021/03/31 00:37:54;;;;;;;;;;;18.20;55.50;;;;;;5075113;28;19909;-63
2021/03/31 00:40:20;;;;;;;;;;;18.20;55.40;;;;;;5075036;28;19919;-63
2021/03/31 00:42:46;;;;;;;;;;;18.20;55.40;;;;;;5074764;28;20027;-63
2021/03/31 00:45:13;;;;;;;;;;;18.10;55.30;;;;;;5075006;28;19967;-63
2021/03/31 00:47:38;;;;;;;;;;;18.20;55.40;;;;;;5074925;28;19908;-63
2021/03/31 00:50:05;;;;;;;;;;;18.00;55.40;;;;;;5056597;28;19917;-63
2021/03/31 00:52:31;;;;;;;;;;;18.10;55.30;;;;;;5074542;28;19991;-63
2021/03/31 00:54:56;;;;;;;;;;;18.20;54.90;;;;;;5074394;28;19919;-63
2021/03/31 00:57:22;;;;;;;;;;;18.30;55.50;;;;;;5056465;28;19909;-63
2021/03/31 00:59:47;;;;;;;;;;;18.00;55.30;;;;;;5056410;28;19909;-63
2021/03/31 01:02:13;;;;;;;;;;;17.90;55.30;;;;;;5073981;28;19908;-63
2021/03/31 01:04:38;;;;;;;;;;;17.90;55.30;;;;;;5039722;28;19931;-63
2021/03/31 01:07:04;;;;;;;;;;;18.00;55.40;;;;;;5074166;28;19909;-63
2021/03/31 01:09:36;;;;;;;;;;;18.10;55.40;;;;;;5074105;28;20726;-63
2021/03/31 01:12:07;;;;;;;;;;;18.00;55.30;;;;;;5074588;28;20015;-63
2021/03/31 01:14:33;;;;;;;;;;;17.90;55.30;;;;;;5074238;28;19962;-63
2021/03/31 01:17:03;;;;;;;;;;;17.90;55.30;;;;;;5056069;28;19916;-63
2021/03/31 01:19:32;;;;;;;;;;;17.90;55.30;;;;;;5056039;28;19915;-63
2021/03/31 01:22:20;;;;;;;;;;;18.10;55.20;;;;;;5073957;28;19909;-63
2021/03/31 01:24:58;;;;;;;;;;;18.10;55.20;;;;;;5073214;28;19966;-63
2021/03/31 01:27:47;;;;;;;;;;;18.00;55.20;;;;;;5073874;28;19952;-63
2021/03/31 01:30:12;;;;;;;;;;;18.10;55.20;;;;;;5053423;28;20374;-63
2021/03/31 01:32:38;;;;;;;;;;;18.00;55.30;;;;;;5055762;28;19955;-63
2021/03/31 01:35:05;;;;;;;;;;;17.70;55.20;;;;;;5074007;28;19960;-63
2021/03/31 01:37:30;;;;;;;;;;;17.90;55.30;;;;;;5073680;28;19943;-63
2021/03/31 01:39:56;;;;;;;;;;;18.10;55.50;;;;;;5073660;28;20363;-63
2021/03/31 01:42:22;;;;;;;;;;;18.00;55.40;;;;;;5073611;28;19915;-63
2021/03/31 01:44:51;;;;;;;;;;;18.00;55.50;;;;;;5055520;28;19909;-63
2021/03/31 01:47:17;;;;;;;;;;;18.00;55.30;;;;;;5073748;28;19916;-63
2021/03/31 01:49:43;;;;;;;;;;;17.80;55.20;;;;;;5055511;28;19917;-63
2021/03/31 01:52:10;;;;;;;;;;;18.10;55.40;;;;;;5073436;28;20076;-63
2021/03/31 01:54:35;;;;;;;;;;;18.00;54.80;;;;;;5073530;28;19909;-63
2021/03/31 01:57:02;;;;;;;;;;;17.80;55.20;;;;;;5073381;28;19920;-63
2021/03/31 01:59:28;;;;;;;;;;;18.00;55.30;;;;;;5073311;28;19909;-63
2021/03/31 02:01:54;;;;;;;;;;;18.00;55.40;;;;;;5055345;28;19990;-64
2021/03/31 02:04:23;;;;;;;;;;;18.20;55.50;;;;;;5073240;28;19908;-64
2021/03/31 02:06:49;;;;;;;;;;;17.90;55.20;;;;;;5073429;28;19915;-63
2021/03/31 02:09:16;;;;;;;;;;;18.70;55.80;;;;;;5072915;28;19960;-64
2021/03/31 02:11:42;;;;;;;;;;;17.70;55.30;;;;;;5073623;28;19920;-63
2021/03/31 02:14:08;;;;;;;;;;;17.80;55.20;;;;;;5072279;28;19908;-63
2021/03/31 02:16:34;;;;;;;;;;;17.90;55.30;;;;;;5072994;28;19931;-64
2021/03/31 02:19:00;;;;;;;;;;;18.00;55.40;;;;;;5054856;28;19955;-63
2021/03/31 02:21:25;;;;;;;;;;;17.90;55.40;;;;;;5073076;28;19958;-63
2021/03/31 02:23:52;;;;;;;;;;;17.90;55.40;;;;;;5072705;28;20282;-64
2021/03/31 02:26:18;;;;;;;;;;;17.80;55.30;;;;;;5054793;28;20007;-63
2021/03/31 02:28:44;;;;;;;;;;;17.90;55.40;;;;;;5072820;28;19988;-63
2021/03/31 02:31:09;;;;;;;;;;;17.70;55.20;;;;;;5072934;28;19912;-63
2021/03/31 02:33:36;;;;;;;;;;;17.70;55.20;;;;;;5072607;28;19912;-63
2021/03/31 02:36:02;;;;;;;;;;;18.20;55.50;;;;;;5054658;28;20309;-63
2021/03/31 02:38:28;;;;;;;;;;;17.80;54.80;;;;;;5054630;28;19962;-64
2021/03/31 02:40:54;;;;;;;;;;;17.70;55.20;;;;;;5072587;28;20282;-64
2021/03/31 02:43:20;;;;;;;;;;;18.00;55.40;;;;;;5072506;28;19909;-64
2021/03/31 02:45:47;;;;;;;;;;;17.80;55.30;;;;;;5072655;28;20051;-65
2021/03/31 02:48:15;;;;;;;;;;;17.70;55.30;;;;;;5072457;28;20291;-63
2021/03/31 02:50:40;;;;;;;;;;;17.90;55.40;;;;;;5072335;28;19973;-64
2021/03/31 02:53:06;;;;;;;;;;;17.70;55.30;;;;;;5072377;28;19908;-63
2021/03/31 02:55:32;;;;;;;;;;;17.70;55.30;;;;;;5054450;28;20375;-63
2021/03/31 02:58:00;;;;;;;;;;;17.70;55.30;;;;;;5072600;28;19974;-64
2021/03/31 03:00:26;;;;;;;;;;;17.80;55.30;;;;;;5072427;28;19958;-63
2021/03/31 03:02:51;;;;;;;;;;;17.80;55.40;;;;;;5072185;28;19952;-63
2021/03/31 03:05:18;;;;;;;;;;;17.70;55.30;;;;;;5054248;28;19909;-63
2021/03/31 03:07:43;;;;;;;;;;;17.70;55.30;;;;;;5072259;28;19909;-63
2021/03/31 03:10:10;;;;;;;;;;;17.80;55.40;;;;;;5053956;28;19923;-63
2021/03/31 03:12:37;;;;;;;;;;;17.80;55.40;;;;;;5053978;28;20359;-63
2021/03/31 03:15:04;;;;;;;;;;;17.60;55.30;;;;;;5072278;28;19951;-63
2021/03/31 03:17:29;;;;;;;;;;;17.80;55.40;;;;;;5054093;28;19954;-63
2021/03/31 03:19:55;;;;;;;;;;;17.80;55.40;;;;;;5072036;28;19928;-63
2021/03/31 03:22:21;;;;;;;;;;;17.80;55.50;;;;;;5072443;28;19916;-63
2021/03/31 03:24:47;;;;;;;;;;;17.80;55.40;;;;;;5072103;28;19908;-64
2021/03/31 03:27:13;;;;;;;;;;;17.60;55.30;;;;;;5076042;28;19944;-63
2021/03/31 03:29:41;;;;;;;;;;;17.60;55.30;;;;;;5058113;28;19916;-63
2021/03/31 03:32:07;;;;;;;;;;;17.60;55.40;;;;;;5058197;28;19995;-63
2021/03/31 03:34:33;;;;;;;;;;;17.70;55.30;;;;;;5076063;28;19916;-63
2021/03/31 03:36:58;;;;;;;;;;;18.10;55.60;;;;;;5076308;28;19908;-63
2021/03/31 03:39:24;;;;;;;;;;;17.60;55.30;;;;;;5075979;28;19909;-63
2021/03/31 03:41:50;;;;;;;;;;;17.70;55.40;;;;;;5075906;28;20426;-63
2021/03/31 03:44:15;;;;;;;;;;;17.60;55.40;;;;;;5075889;28;19951;-62
2021/03/31 03:46:43;;;;;;;;;;;17.40;55.30;;;;;;5075857;28;20039;-63
2021/03/31 03:49:08;;;;;;;;;;;17.80;55.50;;;;;;5076052;28;19923;-64
2021/03/31 03:51:34;;;;;;;;;;;17.90;55.50;;;;;;5075880;28;19909;-63
2021/03/31 03:53:59;;;;;;;;;;;17.70;54.90;;;;;;5075708;28;19913;-64
2021/03/31 03:56:25;;;;;;;;;;;17.50;55.40;;;;;;5057625;28;19986;-64
2021/03/31 03:58:51;;;;;;;;;;;17.60;55.50;;;;;;5075568;28;19948;-63
2021/03/31 04:01:17;;;;;;;;;;;17.50;55.30;;;;;;5075579;28;20398;-64
2021/03/31 04:03:42;;;;;;;;;;;17.50;55.40;;;;;;5057592;28;19952;-64
2021/03/31 04:06:09;;;;;;;;;;;17.50;55.40;;;;;;5057486;28;19963;-63
2021/03/31 04:08:35;;;;;;;;;;;17.70;55.50;;;;;;5075352;28;19909;-63
2021/03/31 04:11:01;;;;;;;;;;;17.90;55.60;;;;;;5075701;28;20451;-63
2021/03/31 04:13:31;;;;;;;;;;;17.60;55.40;;;;;;5075203;28;20010;-63
2021/03/31 04:16:02;;;;;;;;;;;17.60;55.20;;;;;;5075238;28;19948;-63
2021/03/31 04:18:28;;;;;;;;;;;17.60;55.20;;;;;;5075098;28;19947;-63
2021/03/31 04:20:54;;;;;;;;;;;17.50;55.40;;;;;;5057155;28;19908;-63
2021/03/31 04:23:19;;;;;;;;;;;18.00;55.60;;;;;;5075311;28;20320;-62
2021/03/31 04:25:45;;;;;;;;;;;17.50;56.10;;;;;;5075018;28;19920;-62
2021/03/31 04:28:11;;;;;;;;;;;17.20;55.30;;;;;;5075042;28;19958;-62
2021/03/31 04:30:38;;;;;;;;;;;17.60;55.50;;;;;;5056845;28;19924;-62
2021/03/31 04:33:04;;;;;;;;;;;17.50;55.50;;;;;;5075196;28;20003;-63
2021/03/31 04:35:29;;;;;;;;;;;17.60;55.50;;;;;;5074863;28;20012;-62
2021/03/31 04:38:09;;;;;;;;;;;17.60;55.50;;;;;;5074336;28;20402;-62
2021/03/31 04:40:57;;;;;;;;;;;17.60;55.30;;;;;;5074794;28;20378;-62
2021/03/31 04:43:25;;;;;;;;;;;17.60;55.30;;;;;;5043660;28;19909;-62
2021/03/31 04:45:50;;;;;;;;;;;18.30;55.90;;;;;;5074647;28;19982;-62
2021/03/31 04:48:16;;;;;;;;;;;17.50;55.50;;;;;;5074982;28;20355;-62
2021/03/31 04:50:41;;;;;;;;;;;17.50;55.50;;;;;;5074604;28;19950;-62
2021/03/31 04:53:07;;;;;;;;;;;17.50;55.00;;;;;;5074540;28;19908;-62
2021/03/31 04:55:32;;;;;;;;;;;17.80;55.60;;;;;;5056486;28;19915;-63
2021/03/31 04:57:58;;;;;;;;;;;17.20;55.40;;;;;;5074570;28;19908;-62
2021/03/31 05:00:24;;;;;;;;;;;17.60;55.60;;;;;;5056487;28;19908;-63
2021/03/31 05:02:49;;;;;;;;;;;17.50;55.50;;;;;;5056414;28;19912;-62
2021/03/31 05:05:15;;;;;;;;;;;17.40;55.50;;;;;;5074392;28;20413;-63
2021/03/31 05:07:41;;;;;;;;;;;17.50;55.40;;;;;;5074429;28;19981;-63
2021/03/31 05:10:06;;;;;;;;;;;17.50;55.60;;;;;;5056124;28;19971;-63
2021/03/31 05:12:32;;;;;;;;;;;17.50;55.50;;;;;;5074848;28;19979;-63
2021/03/31 05:14:57;;;;;;;;;;;17.60;56.30;;;;;;5074224;28;19908;-63
2021/03/31 05:17:23;;;;;;;;;;;17.40;55.50;;;;;;5074463;28;20002;-62
2021/03/31 05:19:48;;;;;;;;;;;17.30;55.50;;;;;;5056116;28;20456;-62
2021/03/31 05:22:14;;;;;;;;;;;17.30;55.50;;;;;;5074354;28;19915;-62
2021/03/31 05:24:40;;;;;;;;;;;18.30;56.20;;;;;;5073781;28;19916;-62
2021/03/31 05:27:05;;;;;;;;;;;17.30;55.60;;;;;;5055904;28;19965;-62
2021/03/31 05:29:31;;;;;;;;;;;17.40;55.70;;;;;;5073840;28;19920;-62
2021/03/31 05:31:56;;;;;;;;;;;17.40;55.60;;;;;;5056021;28;19909;-62
2021/03/31 05:34:22;;;;;;;;;;;17.50;55.80;;;;;;5055930;28;19912;-62
2021/03/31 05:36:47;;;;;;;;;;;17.30;55.60;;;;;;5055725;28;19915;-62
2021/03/31 05:39:13;;;;;;;;;;;17.40;55.70;;;;;;5073820;28;19908;-62
2021/03/31 05:41:38;;;;;;;;;;;17.70;55.80;;;;;;5073725;28;19964;-61
2021/03/31 05:44:04;;;;;;;;;;;17.30;55.70;;;;;;5073699;28;19990;-62
2021/03/31 05:46:30;;;;;;;;;;;17.40;55.70;;;;;;5073586;28;19986;-61
2021/03/31 05:48:57;;;;;;;;;;;17.20;55.70;;;;;;5054509;28;19983;-62
2021/03/31 05:51:22;;;;;;;;;;;17.40;55.80;;;;;;5073542;28;19915;-62
2021/03/31 05:53:48;;;;;;;;;;;17.20;55.60;;;;;;5073325;28;19908;-61
2021/03/31 05:56:13;;;;;;;;;;;17.40;55.80;;;;;;5073396;28;19912;-62
2021/03/31 05:58:39;;;;;;;;;;;17.30;56.00;;;;;;5073360;28;19912;-62
2021/03/31 06:01:05;;;;;;;;;;;17.20;56.60;;;;;;5072385;28;19908;-62
2021/03/31 06:03:31;;;;;;;;;;;17.30;56.60;;;;;;5072110;28;19924;-61
2021/03/31 06:05:58;;;;;;;;;;;17.30;56.30;;;;;;5053045;28;19913;-61
2021/03/31 06:08:23;;;;;;;;;;;17.40;56.50;;;;;;5072346;28;19908;-60
2021/03/31 06:10:56;;;;;;;;;;;17.20;56.30;;;;;;5054689;28;19916;-61
2021/03/31 06:13:22;;;;;;;;;;;17.30;56.30;;;;;;5054146;28;20378;-61
2021/03/31 06:15:48;;;;;;;;;;;17.30;56.30;;;;;;5072371;28;19916;-61
2021/03/31 06:18:14;;;;;;;;;;;17.40;56.40;;;;;;5073012;28;20059;-60
2021/03/31 06:20:41;;;;;;;;;;;17.40;56.30;;;;;;5073020;28;20259;-60
2021/03/31 06:23:24;;;;;;;;;;;17.40;56.40;;;;;;5072941;28;19912;-60
2021/03/31 06:28:31;;;;;;;;;;;17.20;56.10;;;;;;5080105;28;19920;-61
2021/03/31 06:31:07;;;;;;;;;;;17.40;56.40;;;;;;5072895;28;19917;-61
2021/03/31 06:33:33;;;;;;;;;;;17.40;56.40;;;;;;5054914;28;19954;-61
2021/03/31 06:35:58;;;;;;;;;;;17.30;56.60;;;;;;5054977;28;19908;-60
2021/03/31 06:38:34;;;;;;;;;;;17.20;56.30;;;;;;5072912;28;19908;-61
2021/03/31 06:44:24;;;;;;;;;;;17.70;57.10;;;;;;5079367;28;20341;-61
2021/03/31 06:49:41;;;;;;;;;;;17.30;56.60;;;;;;5028289;28;20279;-60
2021/03/31 06:52:08;;;;;;;;;;;17.20;56.50;;;;;;5054322;28;19912;-61
2021/03/31 06:54:55;;;;;;;;;;;17.50;56.90;;;;;;5072533;28;19909;-61
2021/03/31 06:57:24;;;;;;;;;;;17.40;56.90;;;;;;5054086;28;20010;-61
2021/03/31 07:00:00;;;;;;;;;;;17.50;56.80;;;;;;5054232;28;19962;-60
2021/03/31 07:02:27;;;;;;;;;;;17.50;57.10;;;;;;5054302;28;19932;-61
2021/03/31 07:04:53;;;;;;;;;;;17.40;57.10;;;;;;5072645;28;19954;-61
2021/03/31 07:07:27;;;;;;;;;;;17.60;57.00;;;;;;5072467;28;20354;-61
2021/03/31 07:10:09;;;;;;;;;;;17.40;56.50;;;;;;5072154;28;19916;-61
2021/03/31 07:12:50;;;;;;;;;;;17.60;56.00;;;;;;5072055;28;20136;-61
2021/03/31 07:15:17;;;;;;;;;;;17.60;55.80;;;;;;5072232;28;19938;-61
2021/03/31 07:17:50;;;;;;;;;;;17.60;55.80;;;;;;5054196;28;19909;-62
2021/03/31 07:20:16;;;;;;;;;;;17.70;55.70;;;;;;5078966;28;19947;-61
2021/03/31 07:22:42;;;;;;;;;;;17.50;55.50;;;;;;5072382;28;19956;-61
2021/03/31 07:25:09;;;;;;;;;;;17.70;55.30;;;;;;5072170;28;19916;-61
2021/03/31 07:27:35;;;;;;;;;;;17.80;55.30;;;;;;5072068;28;19940;-61
2021/03/31 07:30:09;;;;;;;;;;;17.70;55.30;;;;;;5072194;28;19970;-61
2021/03/31 07:32:44;;;;;;;;;;;17.70;55.20;;;;;;5078772;28;19952;-61
2021/03/31 07:35:10;;;;;;;;;;;17.80;55.00;;;;;;5072054;28;19962;-62
2021/03/31 07:37:36;;;;;;;;;;;17.80;55.00;;;;;;5072060;28;19910;-62
2021/03/31 07:40:04;;;;;;;;;;;17.90;55.20;;;;;;5072220;28;19916;-61
2021/03/31 07:42:30;;;;;;;;;;;17.90;55.40;;;;;;5071935;28;19908;-62
2021/03/31 07:44:56;;;;;;;;;;;18.10;55.50;;;;;;5071889;28;20428;-61
2021/03/31 07:47:22;;;;;;;;;;;18.00;55.30;;;;;;5072253;28;19935;-61
2021/03/31 07:49:48;;;;;;;;;;;17.90;55.00;;;;;;5072272;28;19955;-62
2021/03/31 07:52:14;;;;;;;;;;;17.90;54.50;;;;;;5071985;28;19927;-62
2021/03/31 07:54:40;;;;;;;;;;;18.10;54.40;;;;;;5072139;28;20354;-62
2021/03/31 07:57:33;;;;;;;;;;;18.10;54.40;;;;;;5072344;28;19909;-62
2021/03/31 07:59:58;;;;;;;;;;;18.10;54.30;;;;;;5068289;28;20034;-61
2021/03/31 08:02:27;;;;;;;;;;;18.10;54.50;;;;;;5071885;28;20454;-62
2021/03/31 08:05:06;;;;;;;;;;;18.30;54.60;;;;;;5072104;28;19920;-61
2021/03/31 08:07:32;;;;;;;;;;;18.00;54.40;;;;;;5072129;28;19916;-62
2021/03/31 08:10:16;;;;;;;;;;;18.00;54.40;;;;;;5071757;28;19939;-62
2021/03/31 08:12:48;;;;;;;;;;;18.30;54.40;;;;;;5073611;28;19932;-62
2021/03/31 08:15:34;;;;;;;;;;;18.20;54.30;;;;;;5075660;28;20007;-62
2021/03/31 08:17:59;;;;;;;;;;;18.30;54.40;;;;;;5056984;28;19909;-62
2021/03/31 08:20:25;;;;;;;;;;;18.40;54.40;;;;;;5075114;28;20003;-61
2021/03/31 08:22:50;;;;;;;;;;;18.40;54.40;;;;;;5075157;28;19946;-63
2021/03/31 08:25:17;;;;;;;;;;;18.20;54.30;;;;;;5074102;28;20306;-61
2021/03/31 08:27:59;;;;;;;;;;;18.50;54.40;;;;;;5074140;28;19909;-62
2021/03/31 08:30:25;;;;;;;;;;;18.50;54.10;;;;;;5074006;28;20011;-61
2021/03/31 08:32:51;;;;;;;;;;;18.50;54.20;;;;;;5056060;28;20005;-62
2021/03/31 08:35:16;;;;;;;;;;;19.40;54.80;;;;;;5074268;28;20359;-62
2021/03/31 08:37:45;;;;;;;;;;;18.70;55.00;;;;;;5073965;28;19912;-62
2021/03/31 08:40:11;;;;;;;;;;;18.60;54.90;;;;;;5074819;28;19917;-61
2021/03/31 08:42:36;;;;;;;;;;;18.80;54.60;;;;;;5075152;28;19916;-62
2021/03/31 08:45:05;;;;;;;;;;;18.80;55.10;;;;;;5075072;28;20315;-62
2021/03/31 08:47:34;;;;;;;;;;;18.90;54.90;;;;;;5074626;28;19919;-61
2021/03/31 08:50:02;;;;;;;;;;;18.80;54.80;;;;;;5074524;28;19912;-62
2021/03/31 08:52:34;;;;;;;;;;;19.10;54.80;;;;;;5074513;28;20454;-62
2021/03/31 08:55:01;;;;;;;;;;;19.10;55.10;;;;;;5074846;28;19995;-61
2021/03/31 08:57:28;;;;;;;;;;;19.00;54.90;;;;;;5074905;28;19913;-61
2021/03/31 08:59:58;;;;;;;;;;;19.00;54.20;;;;;;5074823;28;20260;-61
2021/03/31 09:02:25;;;;;;;;;;;19.30;54.30;;;;;;5074592;28;19908;-62
2021/03/31 09:04:51;;;;;;;;;;;19.20;54.50;;;;;;5074651;28;19913;-61
2021/03/31 09:07:16;;;;;;;;;;;19.20;54.60;;;;;;5074462;28;20011;-62
2021/03/31 09:09:42;;;;;;;;;;;19.30;54.40;;;;;;5074636;28;20403;-62
2021/03/31 09:12:09;;;;;;;;;;;20.20;54.40;;;;;;5074908;28;19920;-62
2021/03/31 09:14:36;;;;;;;;;;;19.50;53.90;;;;;;5074519;28;19915;-62
2021/03/31 09:17:03;;;;;;;;;;;19.30;54.10;;;;;;5074187;28;19924;-61
2021/03/31 09:19:29;;;;;;;;;;;19.50;54.30;;;;;;5074294;28;19909;-62
2021/03/31 09:21:55;;;;;;;;;;;19.70;53.90;;;;;;5074068;28;19908;-61
2021/03/31 09:24:23;;;;;;;;;;;19.60;53.60;;;;;;5073744;28;19926;-61
2021/03/31 09:26:54;;;;;;;;;;;20.20;53.70;;;;;;5074359;28;20325;-62
2021/03/31 09:29:20;;;;;;;;;;;19.60;53.00;;;;;;5074115;28;19916;-62
2021/03/31 09:31:46;;;;;;;;;;;19.60;52.90;;;;;;5074152;28;20046;-61
2021/03/31 09:34:12;;;;;;;;;;;19.70;52.80;;;;;;5073915;28;20370;-61
2021/03/31 09:36:38;;;;;;;;;;;20.50;53.20;;;;;;5073964;28;19916;-61
2021/03/31 09:39:05;;;;;;;;;;;19.40;53.10;;;;;;5074008;28;19908;-62
2021/03/31 09:41:30;;;;;;;;;;;19.70;52.60;;;;;;5073793;28;19912;-62
2021/03/31 09:43:57;;;;;;;;;;;19.70;52.50;;;;;;5073851;28;20011;-61
2021/03/31 09:46:23;;;;;;;;;;;19.50;52.40;;;;;;5073676;28;19935;-62
2021/03/31 09:48:49;;;;;;;;;;;19.70;52.50;;;;;;5055618;28;20458;-64
2021/03/31 09:51:15;;;;;;;;;;;19.50;52.20;;;;;;5073676;28;20015;-62
2021/03/31 09:53:40;;;;;;;;;;;19.70;51.70;;;;;;5073639;28;19975;-61
2021/03/31 09:56:09;;;;;;;;;;;19.70;52.20;;;;;;5073650;28;20011;-62
2021/03/31 09:58:35;;;;;;;;;;;20.40;52.40;;;;;;5073674;28;19912;-61
2021/03/31 10:01:00;;;;;;;;;;;19.80;52.00;;;;;;5055405;28;19913;-61
2021/03/31 10:03:28;;;;;;;;;;;19.70;51.80;;;;;;5073471;28;19927;-62
2021/03/31 10:05:54;;;;;;;;;;;19.70;51.70;;;;;;5073501;28;19909;-61
2021/03/31 10:08:22;;;;;;;;;;;19.70;51.60;;;;;;5073408;28;19919;-62
2021/03/31 10:10:51;;;;;;;;;;;19.90;51.60;;;;;;5054998;28;19974;-61
2021/03/31 10:13:18;;;;;;;;;;;19.90;51.40;;;;;;5054982;28;20367;-62
2021/03/31 10:15:46;;;;;;;;;;;19.70;51.20;;;;;;5073352;28;19932;-61
2021/03/31 10:18:18;;;;;;;;;;;20.60;51.60;;;;;;5072859;28;19909;-61
2021/03/31 10:20:45;;;;;;;;;;;20.00;51.00;;;;;;5072912;28;19913;-62
2021/03/31 10:23:20;;;;;;;;;;;20.00;51.10;;;;;;5055064;28;19919;-61
2021/03/31 10:25:46;;;;;;;;;;;20.00;50.90;;;;;;5055242;28;19947;-62
2021/03/31 10:28:11;;;;;;;;;;;19.80;50.80;;;;;;5072689;28;20006;-62
2021/03/31 10:30:37;;;;;;;;;;;20.00;50.90;;;;;;5072914;28;19927;-61
2021/03/31 10:33:02;;;;;;;;;;;20.00;50.90;;;;;;5072573;28;19908;-61
2021/03/31 10:35:45;;;;;;;;;;;20.10;50.90;;;;;;5072306;28;19963;-61
2021/03/31 10:38:20;;;;;;;;;;;20.10;51.30;;;;;;5079420;28;19919;-61
2021/03/31 10:54:10;;;;;;;;;;;20.20;50.40;;;;;;5072786;28;19916;-61
2021/03/31 10:56:38;;;;;;;;;;;20.20;51.10;;;;;;5054599;28;20314;-61
2021/03/31 10:59:03;;;;;;;;;;;20.80;50.80;;;;;;5072274;28;19908;-62
2021/03/31 11:01:30;;;;;;;;;;;20.30;50.50;;;;;;5054203;28;20366;-61
2021/03/31 11:03:55;;;;;;;;;;;20.40;50.50;;;;;;5072443;28;19916;-61
2021/03/31 11:06:24;;;;;;;;;;;20.50;50.30;;;;;;5072501;28;19936;-61
2021/03/31 11:08:52;;;;;;;;;;;20.60;50.20;;;;;;5072310;28;19970;-61
2021/03/31 11:11:18;;;;;;;;;;;20.70;50.00;;;;;;5072645;28;20417;-61
2021/03/31 11:13:43;;;;;;;;;;;21.40;50.40;;;;;;5071980;28;19920;-61
2021/03/31 11:16:10;;;;;;;;;;;20.70;50.00;;;;;;5072164;28;19909;-61
2021/03/31 11:26:30;;;;;;;;;;;20.80;49.90;;;;;;5079139;28;19915;-61
2021/03/31 11:28:55;;;;;;;;;;;21.00;50.00;;;;;;5072045;28;20296;-62
2021/03/31 11:31:21;;;;;;;;;;;21.20;50.10;;;;;;5072158;28;19916;-61
2021/03/31 11:33:46;;;;;;;;;;;21.10;50.00;;;;;;5072457;28;19995;-61
2021/03/31 11:36:12;;;;;;;;;;;21.70;50.30;;;;;;5072249;28;19912;-60
2021/03/31 11:38:38;;;;;;;;;;;21.10;50.00;;;;;;5037625;28;19943;-61
2021/03/31 11:41:04;;;;;;;;;;;21.00;49.90;;;;;;5071955;28;19915;-61
2021/03/31 11:43:29;;;;;;;;;;;21.10;49.90;;;;;;5071924;28;20390;-62
2021/03/31 11:45:55;;;;;;;;;;;21.20;50.10;;;;;;5071856;28;19999;-61
2021/03/31 11:48:21;;;;;;;;;;;21.20;50.00;;;;;;5075762;28;19996;-61
2021/03/31 11:50:53;;;;;;;;;;;21.30;50.20;;;;;;5075011;28;19978;-62
2021/03/31 11:53:19;;;;;;;;;;;21.30;49.80;;;;;;5075710;28;20003;-61
2021/03/31 11:55:44;;;;;;;;;;;21.20;50.30;;;;;;5075216;28;19943;-61
2021/03/31 11:58:10;;;;;;;;;;;21.00;50.20;;;;;;5075737;28;19912;-61
2021/03/31 12:00:36;;;;;;;;;;;21.30;50.40;;;;;;5075574;28;20494;-61
2021/03/31 12:03:03;;;;;;;;;;;22.20;50.90;;;;;;5075535;28;19909;-61
2021/03/31 12:05:28;;;;;;;;;;;21.30;50.60;;;;;;5075405;28;19908;-61
2021/03/31 12:07:53;;;;;;;;;;;21.30;50.70;;;;;;5075461;28;19908;-61
2021/03/31 12:10:19;;;;;;;;;;;21.30;50.70;;;;;;5075249;28;19999;-61
2021/03/31 12:12:45;;;;;;;;;;;21.30;50.70;;;;;;5075850;28;19921;-61
2021/03/31 12:15:12;;;;;;;;;;;21.30;50.80;;;;;;5057461;28;20355;-61
2021/03/31 12:17:38;;;;;;;;;;;21.30;50.80;;;;;;5057501;28;20359;-61
2021/03/31 12:20:07;;;;;;;;;;;21.20;50.80;;;;;;5075213;28;20382;-61
2021/03/31 12:22:33;;;;;;;;;;;21.20;50.60;;;;;;5075291;28;20386;-61
2021/03/31 12:24:58;;;;;;;;;;;21.60;51.20;;;;;;5075490;28;19909;-61
2021/03/31 12:27:24;;;;;;;;;;;21.50;51.30;;;;;;5075145;28;19916;-61
2021/03/31 12:29:50;;;;;;;;;;;21.30;51.30;;;;;;5075063;28;19913;-61
2021/03/31 12:32:16;;;;;;;;;;;21.20;51.20;;;;;;5075035;28;20386;-61
2021/03/31 12:34:45;;;;;;;;;;;21.30;51.40;;;;;;5074991;28;20007;-61
2021/03/31 12:37:11;;;;;;;;;;;21.30;51.60;;;;;;5074953;28;19916;-61
2021/03/31 12:39:37;;;;;;;;;;;21.30;51.50;;;;;;5075253;28;20641;-61
2021/03/31 12:42:03;;;;;;;;;;;21.20;51.50;;;;;;5074858;28;20001;-61
2021/03/31 12:44:28;;;;;;;;;;;21.20;51.50;;;;;;5074928;28;19915;-61
2021/03/31 12:46:54;;;;;;;;;;;21.10;51.80;;;;;;5074784;28;20283;-61
2021/03/31 12:49:19;;;;;;;;;;;21.10;51.70;;;;;;5074629;28;19916;-60
2021/03/31 12:51:48;;;;;;;;;;;21.10;51.30;;;;;;5074721;28;20426;-61
2021/03/31 12:56:40;;;;;;;;;;;21.00;51.90;;;;;;5075193;28;19909;-62
2021/03/31 12:59:06;;;;;;;;;;;21.20;52.10;;;;;;5055975;28;19954;-61
2021/03/31 13:01:32;;;;;;;;;;;21.50;52.40;;;;;;5074779;28;19916;-61
2021/03/31 13:03:57;;;;;;;;;;;21.20;52.40;;;;;;5074292;28;20367;-61
2021/03/31 13:06:30;;;;;;;;;;;21.20;52.40;;;;;;5072973;28;20371;-61
2021/03/31 13:08:57;;;;;;;;;;;21.00;52.00;;;;;;5073761;28;19916;-61
2021/03/31 13:11:23;;;;;;;;;;;21.20;52.60;;;;;;5074212;28;19921;-61
2021/03/31 13:22:24;;;;;;;;;;;20.90;52.90;;;;;;5021172;28;19919;-61
2021/03/31 13:32:20;;;;;;;;;;;20.90;52.40;;;;;;5073225;28;19919;-61
2021/03/31 13:34:50;;;;;;;;;;;21.50;53.00;;;;;;5073717;28;20371;-61
2021/03/31 13:37:24;;;;;;;;;;;21.00;53.30;;;;;;5073652;28;19912;-61
2021/03/31 13:39:51;;;;;;;;;;;20.90;52.60;;;;;;5080507;28;19985;-61
2021/03/31 13:42:17;;;;;;;;;;;20.90;53.30;;;;;;5073661;28;19916;-61
2021/03/31 13:44:42;;;;;;;;;;;21.00;53.40;;;;;;5073502;28;19913;-61
2021/03/31 13:47:11;;;;;;;;;;;20.80;53.40;;;;;;5073261;28;19909;-61
2021/03/31 13:49:40;;;;;;;;;;;21.30;53.80;;;;;;5073396;28;19916;-62
2021/03/31 13:52:18;;;;;;;;;;;20.70;52.90;;;;;;5073629;28;19963;-61
2021/03/31 13:54:50;;;;;;;;;;;18.80;52.60;;;;;;5073407;28;19909;-61
2021/03/31 13:57:18;;;;;;;;;;;21.30;54.20;;;;;;5079778;28;19908;-61
2021/03/31 13:59:43;;;;;;;;;;;21.10;53.80;;;;;;5072993;28;19962;-60
2021/03/31 14:02:09;;;;;;;;;;;20.60;53.70;;;;;;5073026;28;19913;-61
2021/03/31 14:04:34;;;;;;;;;;;20.60;53.80;;;;;;5072998;28;19954;-61
2021/03/31 14:07:00;;;;;;;;;;;21.00;54.00;;;;;;5073105;28;19918;-61
2021/03/31 14:09:25;;;;;;;;;;;21.20;54.20;;;;;;5072763;28;20367;-62
2021/03/31 14:11:51;;;;;;;;;;;20.70;54.10;;;;;;5055524;28;20268;-62
2021/03/31 14:14:18;;;;;;;;;;;20.60;53.90;;;;;;5073194;28;19912;-62
2021/03/31 14:16:48;;;;;;;;;;;20.70;54.00;;;;;;5073315;28;19917;-62
2021/03/31 14:19:14;;;;;;;;;;;20.60;54.00;;;;;;5073582;28;20007;-62
2021/03/31 14:21:39;;;;;;;;;;;20.60;54.00;;;;;;5072863;28;19956;-62
2021/03/31 14:24:05;;;;;;;;;;;20.80;54.10;;;;;;5054715;28;19909;-62
2021/03/31 14:26:30;;;;;;;;;;;20.60;53.90;;;;;;5073010;28;19920;-62
2021/03/31 14:28:56;;;;;;;;;;;20.80;54.40;;;;;;5054738;28;19909;-62
2021/03/31 14:31:21;;;;;;;;;;;20.60;54.20;;;;;;5072509;28;20286;-62
2021/03/31 14:33:47;;;;;;;;;;;20.60;54.30;;;;;;5072680;28;19912;-61
2021/03/31 14:36:12;;;;;;;;;;;20.70;54.20;;;;;;5072476;28;19912;-62
2021/03/31 14:38:38;;;;;;;;;;;21.50;54.70;;;;;;5072470;28;20416;-62
2021/03/31 14:41:03;;;;;;;;;;;20.60;54.10;;;;;;5054603;28;20003;-62
2021/03/31 14:43:29;;;;;;;;;;;20.70;54.20;;;;;;5072570;28;19967;-60
2021/03/31 14:45:54;;;;;;;;;;;20.90;54.50;;;;;;5072571;28;19909;-62
2021/03/31 14:48:20;;;;;;;;;;;20.60;54.40;;;;;;5054109;28;20293;-59
2021/03/31 14:50:45;;;;;;;;;;;20.60;53.90;;;;;;5072127;28;19920;-60
2021/03/31 14:56:42;;;;;;;;;;;20.70;53.50;;;;;;5077982;28;19942;-61
2021/03/31 15:01:37;;;;;;;;;;;20.70;53.60;;;;;;5079031;28;19915;-59
2021/03/31 15:04:02;;;;;;;;;;;20.70;54.70;;;;;;5072346;28;20291;-62
2021/03/31 15:06:28;;;;;;;;;;;20.50;54.50;;;;;;5072581;28;19919;-61
2021/03/31 15:08:53;;;;;;;;;;;20.60;54.60;;;;;;5054219;28;19979;-62
2021/03/31 15:11:19;;;;;;;;;;;20.50;55.40;;;;;;5071722;28;19948;-62